createdAt,value
2019-02-26T00:01:57.974Z,90.10
2019-02-26T00:04:14.034Z,90.10
2019-02-26T00:06:31.059Z,89.90
2019-02-26T00:08:51.297Z,89.80
2019-02-26T00:11:08.474Z,90.00
2019-02-26T00:13:27.266Z,89.80
2019-02-26T00:15:48.324Z,89.40
2019-02-26T00:18:09.466Z,89.30
2019-02-26T00:20:25.940Z,89.20
2019-02-26T00:22:50.196Z,89.50
2019-02-26T00:25:45.273Z,89.80
2019-02-26T00:27:37.039Z,89.90
2019-02-26T00:29:55.157Z,90.10
2019-02-26T00:32:16.129Z,90.20
2019-02-26T00:34:34.681Z,90.30
2019-02-26T00:39:31.507Z,90.10
2019-02-26T00:41:51.259Z,90.40
2019-02-26T00:44:06.972Z,90.50
2019-02-26T00:46:26.063Z,90.50
2019-02-26T00:48:44.395Z,90.70
2019-02-26T00:51:03.145Z,90.50
2019-02-26T00:53:21.367Z,90.60
2019-02-26T00:55:37.970Z,90.70
2019-02-26T00:58:03.420Z,90.70
2019-02-26T01:00:24.075Z,90.90
2019-02-26T01:02:40.724Z,91.20
2019-02-26T01:04:57.314Z,91.30
2019-02-26T01:07:14.774Z,91.30
2019-02-26T01:09:36.305Z,91.30
2019-02-26T01:11:54.027Z,91.00
2019-02-26T01:14:10.488Z,90.90
2019-02-26T01:16:30.194Z,91.00
2019-02-26T01:18:49.373Z,91.00
2019-02-26T01:21:06.750Z,91.00
2019-02-26T01:23:26.782Z,91.00
2019-02-26T01:25:45.134Z,90.90
2019-02-26T01:28:02.646Z,91.20
2019-02-26T01:30:23.650Z,91.50
2019-02-26T01:32:37.414Z,91.70
2019-02-26T01:34:55.350Z,91.80
2019-02-26T01:37:12.240Z,92.00
2019-02-26T01:39:29.003Z,92.20
2019-02-26T01:41:47.840Z,92.10
2019-02-26T01:44:04.065Z,92.10
2019-02-26T01:46:11.220Z,92.30
2019-02-26T01:48:27.203Z,92.70
2019-02-26T01:50:43.534Z,92.20
2019-02-26T01:53:01.098Z,91.60
2019-02-26T01:55:18.292Z,91.50
2019-02-26T01:57:36.384Z,91.60
2019-02-26T01:59:53.377Z,91.90
2019-02-26T02:02:14.695Z,92.30
2019-02-26T02:04:28.896Z,92.80
2019-02-26T02:06:45.337Z,92.40
2019-02-26T02:09:02.037Z,92.20
2019-02-26T02:11:23.687Z,92.00
2019-02-26T02:13:38.634Z,91.80
2019-02-26T02:15:59.342Z,91.90
2019-02-26T02:18:17.970Z,92.10
2019-02-26T02:20:35.189Z,92.20
2019-02-26T02:22:51.738Z,92.30
2019-02-26T02:25:07.827Z,92.70
2019-02-26T02:27:25.187Z,92.90
2019-02-26T02:29:45.783Z,93.20
2019-02-26T02:32:02.818Z,93.40
2019-02-26T02:34:20.029Z,93.60
2019-02-26T02:36:37.018Z,93.60
2019-02-26T02:38:53.335Z,93.80
2019-02-26T02:41:09.455Z,94.00
2019-02-26T02:43:30.566Z,93.90
2019-02-26T02:45:53.824Z,93.90
2019-02-26T02:48:14.103Z,94.10
2019-02-26T02:50:30.783Z,94.00
2019-02-26T02:52:46.866Z,93.60
2019-02-26T02:55:04.547Z,93.60
2019-02-26T02:57:24.294Z,93.70
2019-02-26T02:59:42.298Z,93.70
2019-02-26T03:01:59.441Z,93.60
2019-02-26T03:04:19.522Z,93.30
2019-02-26T03:06:36.107Z,93.30
2019-02-26T03:08:53.745Z,93.50
2019-02-26T03:11:10.255Z,93.60
2019-02-26T03:13:28.205Z,93.70
2019-02-26T03:15:46.975Z,93.80
2019-02-26T03:18:07.150Z,93.60
2019-02-26T03:22:36.140Z,93.30
2019-02-26T03:25:02.256Z,93.30
2019-02-26T03:27:19.109Z,93.00
2019-02-26T03:29:35.728Z,92.80
2019-02-26T03:31:55.263Z,92.70
2019-02-26T03:34:19.124Z,92.70
2019-02-26T03:36:31.511Z,92.60
2019-02-26T03:38:49.040Z,92.70
2019-02-26T03:41:06.428Z,93.00
2019-02-26T03:43:22.546Z,93.30
2019-02-26T03:45:39.959Z,93.60
2019-02-26T03:47:58.140Z,93.80
2019-02-26T03:50:15.430Z,93.70
2019-02-26T03:52:32.617Z,93.70
2019-02-26T03:54:50.696Z,93.70
2019-02-26T03:57:09.042Z,93.90
2019-02-26T03:59:26.402Z,93.90
2019-02-26T04:01:45.443Z,94.60
2019-02-26T04:04:02.903Z,95.20
2019-02-26T04:06:20.545Z,94.80
2019-02-26T04:08:37.756Z,94.70
2019-02-26T04:10:58.346Z,94.70
2019-02-26T04:13:14.299Z,94.80
2019-02-26T04:15:32.752Z,95.00
2019-02-26T04:17:55.183Z,95.20
2019-02-26T04:20:12.923Z,95.40
2019-02-26T04:22:29.920Z,95.40
2019-02-26T04:24:46.209Z,95.60
2019-02-26T04:27:02.783Z,95.70
2019-02-26T04:29:18.978Z,95.50
2019-02-26T04:31:35.343Z,95.60
2019-02-26T04:33:56.035Z,95.90
2019-02-26T04:36:15.025Z,96.00
2019-02-26T04:38:33.975Z,96.10
2019-02-26T04:40:55.447Z,96.10
2019-02-26T04:43:12.964Z,96.20
2019-02-26T04:45:59.396Z,96.20
2019-02-26T04:48:26.986Z,96.30
2019-02-26T04:50:47.309Z,96.50
2019-02-26T04:53:05.820Z,96.60
2019-02-26T04:55:21.890Z,96.50
2019-02-26T04:57:42.098Z,96.40
2019-02-26T04:59:59.166Z,96.60
2019-02-26T05:02:14.894Z,96.50
2019-02-26T05:04:34.130Z,96.50
2019-02-26T05:06:44.056Z,96.60
2019-02-26T05:09:11.574Z,96.70
2019-02-26T05:13:48.762Z,96.50
2019-02-26T05:16:05.161Z,96.60
2019-02-26T05:18:23.222Z,96.70
2019-02-26T05:20:43.129Z,96.50
2019-02-26T05:23:01.001Z,96.20
2019-02-26T05:25:19.817Z,96.40
2019-02-26T05:27:38.880Z,96.50
2019-02-26T05:29:54.752Z,96.60
2019-02-26T05:32:12.342Z,96.80
2019-02-26T05:34:39.313Z,96.90
2019-02-26T05:37:07.887Z,97.10
2019-02-26T05:39:26.195Z,97.00
2019-02-26T05:41:43.662Z,97.10
2019-02-26T05:44:01.843Z,97.30
2019-02-26T05:46:19.693Z,97.40
2019-02-26T05:48:39.824Z,97.50
2019-02-26T05:50:57.451Z,97.70
2019-02-26T05:53:13.924Z,97.80
2019-02-26T05:55:30.476Z,97.70
2019-02-26T05:57:46.816Z,97.30
2019-02-26T06:00:03.524Z,97.40
2019-02-26T06:02:21.705Z,97.50
2019-02-26T06:04:41.122Z,97.50
2019-02-26T06:07:02.059Z,96.90
2019-02-26T06:09:22.281Z,96.60
2019-02-26T06:11:42.856Z,96.40
2019-02-26T06:14:01.388Z,96.40
2019-02-26T06:16:19.730Z,97.40
2019-02-26T06:18:41.985Z,98.20
2019-02-26T06:20:58.624Z,98.70
2019-02-26T06:23:16.243Z,98.40
2019-02-26T06:25:33.888Z,98.00
2019-02-26T06:27:50.313Z,97.70
2019-02-26T06:30:14.365Z,97.50
2019-02-26T06:32:34.665Z,97.50
2019-02-26T06:34:50.757Z,97.50
2019-02-26T06:37:10.026Z,97.70
2019-02-26T06:39:26.861Z,97.60
2019-02-26T06:41:46.838Z,97.50
2019-02-26T06:44:03.075Z,97.60
2019-02-26T06:46:21.059Z,97.50
2019-02-26T06:48:46.656Z,97.60
2019-02-26T06:51:12.320Z,97.70
2019-02-26T06:55:49.396Z,97.90
2019-02-26T06:58:07.120Z,97.60
2019-02-26T07:00:27.519Z,97.00
2019-02-26T07:02:46.234Z,96.40
2019-02-26T07:05:07.352Z,96.00
2019-02-26T07:07:27.352Z,96.00
2019-02-26T07:09:57.528Z,95.50
2019-02-26T07:12:11.939Z,95.10
2019-02-26T07:14:30.234Z,94.80
2019-02-26T07:16:46.639Z,94.60
2019-02-26T07:19:06.552Z,94.70
2019-02-26T07:21:26.208Z,94.80
2019-02-26T07:23:42.995Z,94.80
2019-02-26T07:25:59.578Z,94.70
2019-02-26T07:28:22.871Z,95.10
2019-02-26T07:30:39.987Z,95.30
2019-02-26T07:32:56.558Z,95.20
2019-02-26T07:35:16.419Z,94.60
2019-02-26T07:37:23.225Z,94.20
2019-02-26T07:39:49.227Z,93.60
2019-02-26T07:42:07.424Z,93.30
2019-02-26T07:44:25.949Z,92.90
2019-02-26T07:46:44.766Z,93.00
2019-02-26T07:49:04.764Z,92.90
2019-02-26T07:51:24.682Z,92.50
2019-02-26T07:53:48.486Z,92.30
2019-02-26T07:56:08.518Z,92.10
2019-02-26T07:58:25.842Z,91.70
2019-02-26T08:00:59.435Z,91.10
2019-02-26T08:03:05.898Z,91.10
2019-02-26T08:05:13.188Z,91.40
2019-02-26T08:07:59.990Z,92.00
2019-02-26T08:10:16.978Z,92.00
2019-02-26T08:12:35.682Z,92.00
2019-02-26T08:14:53.224Z,92.20
2019-02-26T08:17:15.809Z,92.50
2019-02-26T08:19:36.801Z,92.70
2019-02-26T08:21:54.935Z,92.60
2019-02-26T08:24:17.127Z,92.30
2019-02-26T08:26:40.584Z,92.10
2019-02-26T08:28:33.166Z,92.00
2019-02-26T08:33:16.912Z,91.80
2019-02-26T08:35:45.314Z,91.70
2019-02-26T08:40:58.570Z,91.20
2019-02-26T08:43:15.090Z,90.60
2019-02-26T08:45:33.147Z,90.30
2019-02-26T08:47:53.827Z,89.10
2019-02-26T08:50:14.873Z,89.40
2019-02-26T08:52:32.334Z,90.00
2019-02-26T08:55:30.892Z,90.40
2019-02-26T08:57:58.728Z,90.50
2019-02-26T09:02:46.143Z,90.10
2019-02-26T09:05:34.009Z,89.40
2019-02-26T09:07:50.559Z,88.80
2019-02-26T09:09:57.598Z,88.80
2019-02-26T09:12:03.696Z,88.30
2019-02-26T09:14:32.019Z,88.00
2019-02-26T09:16:54.954Z,86.70
2019-02-26T09:19:12.469Z,86.70
2019-02-26T09:21:42.606Z,86.50
2019-02-26T09:24:00.056Z,86.20
2019-02-26T09:26:17.388Z,85.30
2019-02-26T09:28:37.104Z,83.20
2019-02-26T09:30:56.326Z,82.70
2019-02-26T09:33:15.407Z,82.00
2019-02-26T09:35:52.035Z,82.30
2019-02-26T09:38:01.958Z,82.10
2019-02-26T09:40:26.632Z,81.20
2019-02-26T09:42:51.574Z,80.30
2019-02-26T09:46:05.861Z,79.40
2019-02-26T09:50:58.375Z,77.50
2019-02-26T09:53:14.145Z,75.60
2019-02-26T09:55:56.477Z,75.30
2019-02-26T10:04:47.209Z,72.00
2019-02-26T10:07:59.971Z,72.00
2019-02-26T10:12:53.857Z,73.40
2019-02-26T10:16:08.876Z,73.70
2019-02-26T10:17:56.159Z,73.50
2019-02-26T10:20:48.176Z,73.30
2019-02-26T10:23:34.099Z,71.80
2019-02-26T10:34:12.409Z,69.60
2019-02-26T10:36:20.476Z,67.80
2019-02-26T10:39:34.666Z,67.40
2019-02-26T10:44:37.670Z,67.00
2019-02-26T10:47:05.639Z,66.20
2019-02-26T10:49:28.566Z,67.30
2019-02-26T10:57:41.696Z,65.90
2019-02-26T11:00:37.746Z,65.30
2019-02-26T11:03:14.835Z,64.90
2019-02-26T11:08:09.345Z,63.20
2019-02-26T11:21:55.558Z,60.00
2019-02-26T11:24:48.447Z,59.30
2019-02-26T11:38:25.269Z,58.70
2019-02-26T11:40:53.568Z,59.10
2019-02-26T11:43:11.243Z,57.30
2019-02-26T11:51:36.651Z,56.80
2019-02-26T11:53:56.770Z,57.10
2019-02-26T11:56:30.146Z,56.90
2019-02-26T11:59:16.812Z,56.80
2019-02-26T12:02:09.357Z,55.40
2019-02-26T12:04:54.892Z,55.00
2019-02-26T12:10:09.481Z,53.00
2019-02-26T12:14:55.142Z,51.90
2019-02-26T12:17:19.131Z,51.50
2019-02-26T12:21:03.082Z,51.50
2019-02-26T12:23:19.897Z,52.30
2019-02-26T12:26:11.685Z,52.40
2019-02-26T12:28:14.567Z,51.90
2019-02-26T12:30:34.920Z,51.30
2019-02-26T12:34:04.685Z,51.00
2019-02-26T12:35:25.866Z,50.90
2019-02-26T12:38:28.190Z,50.50
2019-02-26T12:50:08.700Z,47.20
2019-02-26T12:52:03.268Z,45.40
2019-02-26T12:54:24.164Z,46.00
2019-02-26T12:56:45.950Z,46.10
2019-02-26T13:10:20.594Z,43.90
2019-02-26T13:16:04.388Z,43.20
2019-02-26T13:18:05.462Z,43.40
2019-02-26T13:20:40.301Z,43.70
2019-02-26T13:23:20.721Z,43.30
2019-02-26T13:25:54.722Z,43.30
2019-02-26T13:28:11.475Z,42.80
